Time;durP1;ratioP1;P1;durP2;ratioP2;P2;SDS_P1;SDS_P2;PMS_P1;PMS_P2;Temp;Humidity;BMP_temperature;BMP_pressure;BME280_temperature;BME280_humidity;BME280_pressure;Samples;Min_cycle;Max_cycle;Signal;HPM_P1;HPM_P2
2022/10/06 00:02:22;;;;;;;4.45;2.47;;;14.60;99.90;;;;;;4994143;28;20053;-75
2022/10/06 00:04:48;;;;;;;4.75;2.53;;;14.50;99.90;;;;;;4994547;28;20049;-75
2022/10/06 00:07:15;;;;;;;5.15;3.03;;;14.60;99.90;;;;;;4992961;28;20046;-74
2022/10/06 00:09:41;;;;;;;6.38;3.45;;;14.60;99.90;;;;;;4994387;28;20027;-74
2022/10/06 00:12:08;;;;;;;4.68;2.17;;;14.50;99.90;;;;;;4993484;28;20039;-75
2022/10/06 00:14:35;;;;;;;5.65;3.17;;;14.50;99.90;;;;;;4992002;28;20053;-75
2022/10/06 00:17:02;;;;;;;4.25;2.55;;;14.50;99.90;;;;;;4975750;28;20039;-76
2022/10/06 00:19:28;;;;;;;3.95;2.33;;;14.40;99.90;;;;;;4993699;28;20105;-75
2022/10/06 00:21:54;;;;;;;4.70;2.25;;;14.30;99.90;;;;;;4994511;28;20387;-76
2022/10/06 00:24:20;;;;;;;7.15;3.92;;;14.30;99.90;;;;;;4992385;28;20053;-77
2022/10/06 00:26:46;;;;;;;5.10;2.92;;;14.10;99.90;;;;;;4993498;28;20030;-76
2022/10/06 00:29:13;;;;;;;5.18;2.58;;;14.00;99.90;;;;;;4992155;28;20042;-74
2022/10/06 00:31:40;;;;;;;5.05;2.45;;;14.00;99.90;;;;;;4993220;28;20054;-74
2022/10/06 00:34:06;;;;;;;5.15;2.95;;;13.90;99.90;;;;;;4992842;28;20053;-75
2022/10/06 00:36:33;;;;;;;5.00;2.83;;;13.80;99.90;;;;;;4993239;28;20038;-76
2022/10/06 00:38:59;;;;;;;4.85;2.33;;;13.80;99.90;;;;;;4994019;28;20038;-76
2022/10/06 00:41:25;;;;;;;4.93;3.60;;;13.70;99.90;;;;;;4993058;28;20510;-75
2022/10/06 00:43:55;;;;;;;5.22;3.38;;;13.60;99.90;;;;;;4994046;28;20375;-76
2022/10/06 00:46:36;;;;;;;5.25;2.75;;;13.60;99.90;;;;;;4993021;28;20051;-75
2022/10/06 00:49:27;;;;;;;5.57;2.90;;;13.60;99.90;;;;;;4992480;28;20058;-74
2022/10/06 00:52:08;;;;;;;7.30;3.42;;;13.50;99.90;;;;;;4993498;28;20037;-74
2022/10/06 00:54:35;;;;;;;4.97;2.92;;;13.40;99.90;;;;;;4993170;28;20030;-74
2022/10/06 00:57:02;;;;;;;6.00;3.03;;;13.40;99.90;;;;;;5007101;28;20046;-75
2022/10/06 00:59:29;;;;;;;6.75;3.35;;;13.30;99.90;;;;;;4999956;28;20054;-75
2022/10/06 01:02:08;;;;;;;5.65;3.38;;;13.30;99.90;;;;;;4993792;28;20030;-75
2022/10/06 01:04:37;;;;;;;6.60;3.72;;;13.30;99.90;;;;;;4993173;28;20392;-75
2022/10/06 01:07:03;;;;;;;6.55;4.10;;;13.20;99.90;;;;;;4993449;28;20427;-76
2022/10/06 01:09:30;;;;;;;6.13;3.55;;;13.20;99.90;;;;;;4989551;28;20049;-76
2022/10/06 01:11:59;;;;;;;6.82;4.10;;;13.30;99.90;;;;;;4991931;28;20041;-75
2022/10/06 01:14:26;;;;;;;6.47;3.60;;;13.30;99.90;;;;;;4991655;28;20050;-76
2022/10/06 01:16:58;;;;;;;5.13;3.13;;;13.10;99.90;;;;;;4993492;28;20046;-75
2022/10/06 01:19:40;;;;;;;4.80;2.97;;;13.00;99.90;;;;;;4991251;28;20038;-74
2022/10/06 01:22:07;;;;;;;7.40;3.20;;;12.90;99.90;;;;;;4993558;28;20034;-74
2022/10/06 01:24:35;;;;;;;9.63;3.58;;;12.80;99.90;;;;;;4990663;28;20038;-75
2022/10/06 01:27:03;;;;;;;4.78;3.28;;;12.60;99.90;;;;;;4989372;28;20479;-75
2022/10/06 01:29:32;;;;;;;6.03;3.50;;;12.60;99.90;;;;;;4973411;28;20088;-76
2022/10/06 01:31:58;;;;;;;6.32;3.10;;;12.60;99.90;;;;;;4991799;28;20404;-76
2022/10/06 01:34:25;;;;;;;7.57;3.90;;;12.50;99.90;;;;;;4992611;28;20027;-78
2022/10/06 01:36:51;;;;;;;6.47;3.15;;;12.50;99.90;;;;;;4991744;28;20047;-76
2022/10/06 01:39:17;;;;;;;8.30;3.80;;;12.50;99.90;;;;;;4989846;28;20054;-76
2022/10/06 01:41:46;;;;;;;6.40;3.83;;;12.40;99.90;;;;;;4992609;28;20038;-75
2022/10/06 01:44:13;;;;;;;5.45;3.55;;;12.40;99.90;;;;;;4992973;28;20034;-75
2022/10/06 01:46:40;;;;;;;7.82;3.72;;;12.40;99.90;;;;;;4992151;28;20259;-75
2022/10/06 01:49:06;;;;;;;9.88;3.78;;;12.50;99.90;;;;;;4991126;28;20481;-76
2022/10/06 01:51:33;;;;;;;6.72;3.75;;;12.50;99.90;;;;;;4991156;28;20039;-75
2022/10/06 01:53:59;;;;;;;8.15;4.28;;;12.60;99.90;;;;;;4992035;28;20050;-75
2022/10/06 01:56:26;;;;;;;7.90;3.75;;;12.70;99.90;;;;;;4992056;28;20041;-76
2022/10/06 01:58:52;;;;;;;8.25;3.55;;;12.80;99.90;;;;;;4990130;28;20030;-75
2022/10/06 02:01:18;;;;;;;6.72;3.80;;;12.80;99.90;;;;;;4991033;28;20042;-75
2022/10/06 02:03:44;;;;;;;6.72;3.78;;;12.90;99.90;;;;;;4974376;28;20046;-76
2022/10/06 02:06:10;;;;;;;5.85;3.65;;;12.90;99.90;;;;;;4992428;28;20400;-75
2022/10/06 02:08:37;;;;;;;7.13;4.03;;;13.00;99.90;;;;;;5004356;28;20472;-75
2022/10/06 02:11:09;;;;;;;7.30;4.07;;;13.00;99.90;;;;;;4990825;28;20498;-74
2022/10/06 02:13:40;;;;;;;4.80;3.28;;;13.00;99.90;;;;;;4991204;28;20050;-75
2022/10/06 02:16:08;;;;;;;5.10;3.25;;;13.00;99.90;;;;;;4992216;28;20041;-75
2022/10/06 02:18:34;;;;;;;5.18;3.40;;;13.10;99.90;;;;;;5004543;28;20046;-75
2022/10/06 02:21:01;;;;;;;6.93;4.15;;;13.20;99.90;;;;;;4992824;28;20030;-75
2022/10/06 02:23:29;;;;;;;9.90;3.92;;;13.20;99.90;;;;;;4991743;28;20045;-76
2022/10/06 02:26:00;;;;;;;8.25;3.78;;;13.20;99.90;;;;;;5006736;28;20064;-74
2022/10/06 02:28:27;;;;;;;;;;;13.30;99.90;;;;;;4989234;28;20046;-75
2022/10/06 02:30:54;;;;;;;5.40;3.78;;;13.50;99.90;;;;;;4990755;28;19909;-75
2022/10/06 02:33:21;;;;;;;5.32;3.20;;;13.60;99.90;;;;;;4991008;28;20043;-75
2022/10/06 02:35:53;;;;;;;8.60;3.20;;;13.70;99.90;;;;;;4990383;28;20046;-74
2022/10/06 02:38:20;;;;;;;8.77;3.45;;;13.90;99.90;;;;;;4991235;28;20035;-75
2022/10/06 02:40:47;;;;;;;5.18;2.97;;;13.90;99.90;;;;;;4982087;28;20051;-74
2022/10/06 02:43:13;;;;;;;7.78;3.90;;;14.00;99.90;;;;;;4989856;28;20432;-74
2022/10/06 02:45:40;;;;;;;5.75;4.10;;;13.90;99.90;;;;;;4983671;28;20042;-75
2022/10/06 02:48:08;;;;;;;6.40;3.20;;;13.90;99.90;;;;;;4964993;28;20113;-74
2022/10/06 02:50:35;;;;;;;7.68;3.92;;;14.00;99.90;;;;;;4990567;28;20039;-74
2022/10/06 02:53:05;;;;;;;6.38;3.67;;;14.00;99.90;;;;;;4992397;28;20479;-75
2022/10/06 02:55:32;;;;;;;14.20;3.70;;;14.00;99.90;;;;;;4990101;28;20049;-73
2022/10/06 02:57:59;;;;;;;7.70;3.05;;;14.10;99.90;;;;;;4989087;28;20399;-75
2022/10/06 03:00:25;;;;;;;5.53;2.85;;;14.10;99.90;;;;;;4989528;28;20042;-76
2022/10/06 03:02:52;;;;;;;4.78;2.70;;;14.10;99.90;;;;;;4991828;28;20079;-75
2022/10/06 03:05:19;;;;;;;3.70;2.97;;;14.10;99.90;;;;;;4992231;28;20041;-74
2022/10/06 03:07:45;;;;;;;7.25;3.40;;;14.00;99.90;;;;;;4988793;28;20093;-75
2022/10/06 03:10:11;;;;;;;5.05;3.20;;;14.00;99.90;;;;;;4974422;28;20496;-75
2022/10/06 03:12:38;;;;;;;8.30;3.35;;;14.00;99.90;;;;;;4991244;28;20046;-74
2022/10/06 03:15:07;;;;;;;7.18;3.47;;;14.00;99.90;;;;;;4990657;28;20373;-74
2022/10/06 03:17:33;;;;;;;5.68;3.10;;;14.10;99.90;;;;;;4987705;28;20134;-75
2022/10/06 03:19:59;;;;;;;5.25;2.55;;;14.10;99.90;;;;;;4991402;28;20045;-75
2022/10/06 03:22:26;;;;;;;8.82;2.88;;;14.20;99.90;;;;;;4976695;28;20038;-76
2022/10/06 03:24:54;;;;;;;4.82;1.67;;;14.30;99.90;;;;;;4990756;28;20049;-75
2022/10/06 03:27:21;;;;;;;4.72;1.20;;;14.40;99.90;;;;;;4990344;28;20046;-75
2022/10/06 03:29:48;;;;;;;5.35;2.10;;;14.50;99.90;;;;;;4988920;28;20053;-75
2022/10/06 03:32:15;;;;;;;12.30;0.90;;;14.80;99.90;;;;;;4990778;28;20050;-75
2022/10/06 03:34:42;;;;;;;2.90;1.17;;;14.90;99.90;;;;;;4992811;28;20049;-75
2022/10/06 03:37:12;;;;;;;3.22;0.60;;;15.00;99.90;;;;;;4993402;28;20050;-75
2022/10/06 03:39:38;;;;;;;3.15;0.70;;;15.00;99.90;;;;;;4993444;28;20041;-75
2022/10/06 03:42:04;;;;;;;3.65;0.75;;;15.00;99.90;;;;;;4995257;28;20045;-76
2022/10/06 03:44:33;;;;;;;1.52;0.45;;;15.00;99.90;;;;;;4994761;28;20106;-74
2022/10/06 03:47:00;;;;;;;2.60;0.50;;;15.00;99.90;;;;;;5000151;28;20053;-74
2022/10/06 03:49:27;;;;;;;3.45;1.02;;;15.00;99.90;;;;;;4977876;28;20059;-75
2022/10/06 03:51:53;;;;;;;0.57;0.35;;;15.00;99.90;;;;;;4995159;28;20034;-72
2022/10/06 03:54:23;;;;;;;1.52;0.47;;;15.00;99.90;;;;;;4987609;28;20142;-73
2022/10/06 03:56:52;;;;;;;6.72;0.65;;;15.00;99.90;;;;;;4993490;28;20061;-73
2022/10/06 03:59:19;;;;;;;1.92;0.30;;;15.00;99.90;;;;;;4984383;28;20514;-73
2022/10/06 04:01:47;;;;;;;3.95;0.38;;;15.00;99.90;;;;;;4984270;28;20491;-72
2022/10/06 04:04:22;;;;;;;3.38;0.63;;;15.00;99.90;;;;;;5008886;28;20073;-74
2022/10/06 04:06:51;;;;;;;1.33;0.30;;;15.10;99.90;;;;;;4994633;28;20042;-73
2022/10/06 04:09:19;;;;;;;1.50;0.40;;;15.20;99.90;;;;;;4993224;28;20050;-73
2022/10/06 04:11:46;;;;;;;1.73;0.32;;;15.20;99.90;;;;;;4992739;28;20032;-73
2022/10/06 04:14:15;;;;;;;3.13;0.50;;;15.20;99.90;;;;;;4993405;28;20038;-73
2022/10/06 04:16:44;;;;;;;2.25;0.30;;;15.20;99.90;;;;;;4992674;28;20046;-73
2022/10/06 04:19:12;;;;;;;1.17;0.30;;;15.20;99.90;;;;;;5008682;28;20046;-72
2022/10/06 04:21:45;;;;;;;5.40;0.98;;;15.10;99.90;;;;;;4991094;28;20471;-73
2022/10/06 04:24:17;;;;;;;1.50;0.35;;;15.10;99.90;;;;;;5004853;28;20405;-72
2022/10/06 04:26:45;;;;;;;1.67;0.40;;;15.00;99.90;;;;;;4990206;28;20069;-73
2022/10/06 04:29:12;;;;;;;1.25;0.60;;;15.10;99.90;;;;;;4992733;28;20050;-70
2022/10/06 04:31:41;;;;;;;2.28;0.40;;;15.10;99.90;;;;;;4990983;28;20049;-73
2022/10/06 04:34:12;;;;;;;1.40;0.73;;;15.00;99.90;;;;;;4992961;28;20479;-72
2022/10/06 04:36:41;;;;;;;3.38;0.47;;;14.90;99.90;;;;;;4990376;28;20046;-73
2022/10/06 04:39:11;;;;;;;2.83;1.17;;;14.90;99.90;;;;;;5011034;28;20049;-71
2022/10/06 04:41:40;;;;;;;3.13;0.30;;;14.80;99.90;;;;;;4986458;28;20061;-74
2022/10/06 04:44:07;;;;;;;2.30;0.40;;;14.80;99.90;;;;;;4989729;28;20514;-71
2022/10/06 04:46:35;;;;;;;4.78;0.60;;;14.80;99.90;;;;;;4991375;28;20490;-73
2022/10/06 04:49:02;;;;;;;4.95;0.93;;;14.80;99.90;;;;;;4990030;28;20054;-72
2022/10/06 04:51:31;;;;;;;3.72;0.60;;;14.80;99.90;;;;;;4973923;28;20476;-75
2022/10/06 04:53:58;;;;;;;4.53;0.50;;;14.70;99.90;;;;;;4983871;28;20046;-74
2022/10/06 04:56:30;;;;;;;1.48;0.40;;;14.70;99.90;;;;;;4992497;28;20044;-74
2022/10/06 04:58:59;;;;;;;4.25;0.68;;;14.70;99.90;;;;;;4992122;28;20054;-72
2022/10/06 05:01:35;;;;;;;3.63;1.50;;;14.70;99.90;;;;;;4991941;28;20484;-74
2022/10/06 05:04:05;;;;;;;1.02;0.40;;;14.70;99.90;;;;;;4991355;28;20057;-73
2022/10/06 05:06:39;;;;;;;1.35;0.60;;;14.70;99.90;;;;;;4986337;28;20039;-73
2022/10/06 05:09:09;;;;;;;1.73;0.40;;;14.60;99.90;;;;;;4989549;28;20038;-72
2022/10/06 05:11:37;;;;;;;1.63;0.60;;;14.60;99.90;;;;;;4990635;28;20039;-74
2022/10/06 05:14:06;;;;;;;2.78;1.40;;;14.60;99.90;;;;;;4991301;28;20049;-73
2022/10/06 05:16:36;;;;;;;2.40;0.60;;;14.50;99.90;;;;;;4990964;28;20042;-73
2022/10/06 05:19:03;;;;;;;4.20;0.65;;;14.50;99.90;;;;;;4991663;28;20046;-73
2022/10/06 05:21:31;;;;;;;1.80;0.47;;;14.70;99.90;;;;;;4990849;28;20042;-78
2022/10/06 05:23:59;;;;;;;2.58;0.43;;;14.80;99.90;;;;;;4981461;28;20405;-72
2022/10/06 05:26:29;;;;;;;3.40;0.52;;;14.90;99.90;;;;;;4991655;28;20042;-73
2022/10/06 05:28:57;;;;;;;2.42;0.60;;;14.90;99.90;;;;;;5000483;28;20046;-74
2022/10/06 05:31:30;;;;;;;7.85;0.85;;;14.90;99.90;;;;;;4990960;28;20034;-73
2022/10/06 05:33:58;;;;;;;2.30;0.65;;;14.90;99.90;;;;;;4990581;28;20046;-72
2022/10/06 05:36:28;;;;;;;3.55;0.55;;;14.90;99.90;;;;;;4975278;28;20046;-73
2022/10/06 05:38:56;;;;;;;2.35;0.93;;;14.90;99.90;;;;;;4990999;28;20046;-73
2022/10/06 05:41:28;;;;;;;4.78;0.63;;;14.90;99.90;;;;;;4992522;28;20384;-74
2022/10/06 05:43:57;;;;;;;2.50;0.70;;;15.00;99.90;;;;;;4989869;28;20049;-72
2022/10/06 05:46:27;;;;;;;4.18;2.58;;;15.00;99.90;;;;;;4992646;28;20026;-71
2022/10/06 05:48:56;;;;;;;2.35;0.90;;;15.00;99.90;;;;;;5006027;28;20472;-72
2022/10/06 05:51:27;;;;;;;4.40;1.10;;;15.00;99.90;;;;;;5006523;28;20069;-73
2022/10/06 05:53:54;;;;;;;2.03;0.68;;;15.00;99.90;;;;;;4989221;28;20056;-73
2022/10/06 05:56:22;;;;;;;2.67;1.10;;;15.00;99.90;;;;;;4991270;28;20042;-74
2022/10/06 05:58:51;;;;;;;4.05;0.90;;;15.00;99.90;;;;;;4991421;28;20396;-72
2022/10/06 06:01:20;;;;;;;3.53;0.70;;;15.00;99.90;;;;;;5006450;28;20050;-72
2022/10/06 06:03:59;;;;;;;2.83;1.17;;;14.90;99.90;;;;;;4988573;28;20042;-73
2022/10/06 06:06:29;;;;;;;2.67;0.90;;;15.00;99.90;;;;;;5006957;28;20606;-73
2022/10/06 06:09:02;;;;;;;4.20;0.98;;;14.90;99.90;;;;;;4990742;28;20053;-73
2022/10/06 06:11:32;;;;;;;3.67;0.70;;;15.00;99.90;;;;;;4991914;28;20030;-73
2022/10/06 06:14:04;;;;;;;4.90;0.70;;;15.00;99.90;;;;;;4989717;28;20057;-74
2022/10/06 06:16:31;;;;;;;3.63;0.60;;;15.00;99.90;;;;;;4992231;28;20035;-77
2022/10/06 06:18:59;;;;;;;5.72;0.80;;;14.90;99.90;;;;;;4991546;28;20061;-73
2022/10/06 06:21:26;;;;;;;2.08;0.80;;;14.90;99.90;;;;;;5004874;28;20484;-73
2022/10/06 06:23:53;;;;;;;5.30;1.05;;;15.00;99.90;;;;;;4969829;28;20039;-74
2022/10/06 06:26:27;;;;;;;3.50;0.80;;;15.10;99.90;;;;;;4981469;28;20069;-73
2022/10/06 06:29:00;;;;;;;2.80;0.90;;;15.10;99.90;;;;;;4991056;28;20034;-75
2022/10/06 06:31:28;;;;;;;5.43;0.88;;;15.10;99.90;;;;;;4991933;28;20030;-74
2022/10/06 06:33:56;;;;;;;1.88;0.40;;;15.10;99.90;;;;;;4989307;28;20047;-75
2022/10/06 06:36:27;;;;;;;;;;;15.20;99.90;;;;;;4991710;28;20041;-73
2022/10/06 06:38:55;;;;;;;5.78;0.60;;;15.20;99.90;;;;;;4990587;28;19917;-75
2022/10/06 06:41:25;;;;;;;5.97;1.02;;;15.20;99.90;;;;;;4990630;28;20065;-75
2022/10/06 06:43:58;;;;;;;3.45;0.63;;;15.20;99.90;;;;;;4990349;28;20046;-73
2022/10/06 06:46:33;;;;;;;4.80;0.70;;;15.30;99.90;;;;;;4990931;28;20035;-77
2022/10/06 06:49:06;;;;;;;5.10;1.13;;;15.40;99.90;;;;;;5006457;28;20047;-74
2022/10/06 06:51:40;;;;;;;2.80;0.43;;;15.50;99.90;;;;;;4988878;28;20049;-74
2022/10/06 06:54:07;;;;;;;5.45;1.70;;;15.50;99.90;;;;;;4992460;28;20037;-73
2022/10/06 06:56:37;;;;;;;4.47;1.02;;;15.60;99.90;;;;;;4990159;28;20490;-74
2022/10/06 06:59:09;;;;;;;6.63;0.88;;;15.70;99.90;;;;;;4992265;28;20061;-74
2022/10/06 07:01:46;;;;;;;4.20;0.57;;;15.70;99.90;;;;;;4998322;28;20047;-75
2022/10/06 07:04:15;;;;;;;3.25;0.80;;;15.80;99.90;;;;;;4990880;28;20030;-72
2022/10/06 07:06:52;;;;;;;3.75;0.63;;;15.90;99.90;;;;;;4990996;28;20038;-73
2022/10/06 07:09:19;;;;;;;5.85;0.98;;;15.90;99.90;;;;;;4994557;28;20053;-73
2022/10/06 07:11:46;;;;;;;4.47;0.77;;;15.90;99.90;;;;;;4992593;28;20053;-74
2022/10/06 07:14:17;;;;;;;5.28;0.93;;;15.80;99.90;;;;;;4995785;28;20034;-73
2022/10/06 07:25:26;;;;;;;5.63;1.05;;;15.60;99.90;;;;;;5009679;28;20053;-74
2022/10/06 07:27:55;;;;;;;4.80;0.90;;;15.60;99.90;;;;;;5000240;28;20043;-74
2022/10/06 07:30:27;;;;;;;4.53;1.42;;;15.60;99.90;;;;;;4993982;28;20046;-74
2022/10/06 07:33:09;;;;;;;6.78;0.80;;;15.60;99.90;;;;;;5007808;28;20049;-72
2022/10/06 07:35:38;;;;;;;4.07;0.70;;;15.50;99.90;;;;;;4993212;28;20392;-73
2022/10/06 07:38:06;;;;;;;2.33;1.13;;;15.60;99.90;;;;;;4993732;28;20042;-73
2022/10/06 07:40:34;;;;;;;2.50;0.60;;;15.60;99.90;;;;;;4993391;28;20039;-75
2022/10/06 07:43:01;;;;;;;2.35;0.73;;;15.60;99.90;;;;;;4993818;28;20037;-74
2022/10/06 07:45:43;;;;;;;3.20;0.52;;;15.40;99.90;;;;;;4993395;28;20443;-73
2022/10/06 07:48:24;;;;;;;4.43;0.80;;;15.30;99.90;;;;;;4993739;28;20058;-74
2022/10/06 07:50:53;;;;;;;7.30;1.75;;;15.30;99.90;;;;;;4977569;28;20054;-74
2022/10/06 07:53:26;;;;;;;4.05;0.90;;;15.50;99.90;;;;;;4992312;28;20046;-74
2022/10/06 07:56:03;;;;;;;4.75;0.90;;;16.10;99.90;;;;;;4992985;28;20415;-73
2022/10/06 07:58:33;;;;;;;5.50;0.70;;;16.30;99.90;;;;;;4993606;28;20049;-74
2022/10/06 08:01:08;;;;;;;7.10;1.08;;;16.20;99.90;;;;;;4994960;28;20050;-74
2022/10/06 08:03:39;;;;;;;4.07;0.70;;;16.00;99.90;;;;;;4993120;28;20049;-76
2022/10/06 08:06:05;;;;;;;3.97;0.70;;;15.80;99.90;;;;;;4994722;28;20057;-73
2022/10/06 08:08:36;;;;;;;5.05;1.38;;;15.70;99.90;;;;;;4994616;28;20038;-75
2022/10/06 08:11:04;;;;;;;5.07;1.63;;;15.60;99.90;;;;;;4994992;28;20038;-75
2022/10/06 08:13:33;;;;;;;4.35;1.13;;;15.60;99.90;;;;;;4993011;28;20045;-74
2022/10/06 08:16:08;;;;;;;7.82;1.55;;;15.70;99.90;;;;;;4993954;28;20510;-76
2022/10/06 08:18:37;;;;;;;3.05;0.60;;;16.00;99.90;;;;;;4994039;28;20045;-77
2022/10/06 08:21:12;;;;;;;4.20;0.73;;;16.50;99.90;;;;;;4994613;28;20494;-73
2022/10/06 08:23:41;;;;;;;10.77;0.82;;;17.20;99.90;;;;;;4992889;28;20038;-75
2022/10/06 08:26:09;;;;;;;6.38;0.70;;;17.50;99.90;;;;;;4994228;28;20348;-73
2022/10/06 08:28:36;;;;;;;3.00;0.52;;;17.50;95.10;;;;;;4993879;28;20046;-80
2022/10/06 08:31:10;;;;;;;5.63;1.00;;;17.70;94.90;;;;;;4994500;28;20345;-72
2022/10/06 08:33:37;;;;;;;5.28;1.00;;;17.20;94.70;;;;;;4992060;28;20050;-76
2022/10/06 08:36:07;;;;;;;4.20;0.98;;;17.00;84.30;;;;;;4994131;28;20042;-73
2022/10/06 08:38:36;;;;;;;9.82;1.73;;;16.90;81.00;;;;;;4994322;28;20050;-74
2022/10/06 08:41:38;;;;;;;6.57;0.90;;;17.00;79.00;;;;;;4994210;28;20042;-73
2022/10/06 08:44:18;;;;;;;4.38;1.17;;;16.90;78.60;;;;;;4962967;28;20065;-73
2022/10/06 08:47:00;;;;;;;6.38;1.35;;;16.90;77.90;;;;;;4992543;28;20030;-73
2022/10/06 08:49:36;;;;;;;6.32;1.42;;;16.80;73.70;;;;;;4993661;28;20050;-74
2022/10/06 08:52:40;;;;;;;6.68;0.90;;;17.30;72.80;;;;;;4991127;28;20034;-72
2022/10/06 08:55:26;;;;;;;5.95;1.00;;;17.30;69.90;;;;;;5008762;28;20045;-73
2022/10/06 08:58:11;;;;;;;3.90;0.88;;;17.80;74.60;;;;;;4992979;28;20043;-74
2022/10/06 09:00:37;;;;;;;8.02;1.88;;;17.60;70.40;;;;;;4991526;28;20049;-79
2022/10/06 09:03:04;;;;;;;3.67;1.00;;;17.60;72.70;;;;;;4992078;28;20039;-73
2022/10/06 09:05:33;;;;;;;7.43;1.00;;;18.10;69.50;;;;;;4993839;28;20041;-73
2022/10/06 09:08:23;;;;;;;4.55;0.98;;;18.30;71.60;;;;;;4992867;28;20030;-73
2022/10/06 09:11:09;;;;;;;6.70;1.13;;;18.30;79.90;;;;;;4993075;28;20030;-72
2022/10/06 09:13:44;;;;;;;7.15;0.68;;;18.10;82.40;;;;;;4992330;28;20037;-73
2022/10/06 09:16:16;;;;;;;5.20;1.20;;;18.50;82.50;;;;;;4993791;28;20038;-73
2022/10/06 09:18:53;;;;;;;2.95;1.17;;;18.20;85.20;;;;;;4987164;28;20139;-71
2022/10/06 09:21:29;;;;;;;5.00;0.90;;;18.30;84.00;;;;;;4992501;28;20392;-75
2022/10/06 09:24:02;;;;;;;5.93;0.70;;;18.20;82.70;;;;;;4992705;28;20065;-73
2022/10/06 09:26:31;;;;;;;7.63;1.00;;;18.00;85.00;;;;;;4993232;28;20034;-72
2022/10/06 09:28:57;;;;;;;3.53;0.80;;;18.00;85.40;;;;;;4992442;28;20037;-73
2022/10/06 09:31:33;;;;;;;7.22;1.50;;;17.80;86.30;;;;;;4991280;28;20452;-75
2022/10/06 09:34:20;;;;;;;5.35;0.90;;;17.30;89.90;;;;;;4992455;28;20476;-73
2022/10/06 09:37:02;;;;;;;8.07;1.40;;;17.40;87.30;;;;;;4992827;28;20037;-74
2022/10/06 09:39:35;;;;;;;4.75;0.82;;;17.40;88.00;;;;;;4993245;28;20448;-73
2022/10/06 09:42:05;;;;;;;3.53;0.85;;;17.50;83.70;;;;;;4990811;28;20045;-72
2022/10/06 09:44:50;;;;;;;8.88;1.20;;;17.40;82.90;;;;;;4991755;28;20041;-74
2022/10/06 09:47:31;;;;;;;4.55;0.90;;;17.60;83.20;;;;;;4992763;28;20027;-73
2022/10/06 09:50:27;;;;;;;2.85;0.88;;;17.80;79.10;;;;;;4991985;28;20061;-72
2022/10/06 09:53:07;;;;;;;4.55;0.82;;;17.80;79.30;;;;;;4991190;28;20472;-74
2022/10/06 09:55:37;;;;;;;2.97;0.90;;;17.40;76.40;;;;;;4991635;28;20045;-73
2022/10/06 09:58:16;;;;;;;5.13;0.90;;;17.40;74.40;;;;;;4991950;28;20045;-72
2022/10/06 10:00:51;;;;;;;6.15;0.60;;;17.20;72.20;;;;;;4992505;28;20043;-73
2022/10/06 10:03:17;;;;;;;3.58;0.93;;;17.00;71.20;;;;;;4983700;28;20054;-75
2022/10/06 10:05:49;;;;;;;3.25;0.80;;;17.10;71.30;;;;;;4992076;28;20514;-73
2022/10/06 10:08:24;;;;;;;4.53;0.98;;;17.30;72.70;;;;;;4992907;28;20035;-74
2022/10/06 10:14:03;;;;;;;9.05;1.10;;;17.80;71.50;;;;;;4992083;28;20507;-73
2022/10/06 10:16:34;;;;;;;3.15;1.30;;;17.50;66.00;;;;;;4992451;28;20034;-72
2022/10/06 10:19:04;;;;;;;8.75;1.45;;;17.60;66.50;;;;;;4985915;28;20382;-72
2022/10/06 10:21:33;;;;;;;8.70;1.35;;;17.70;64.60;;;;;;4990786;28;20043;-71
2022/10/06 10:24:05;;;;;;;6.45;0.73;;;17.70;65.30;;;;;;4992055;28;20045;-74
2022/10/06 10:26:46;;;;;;;6.00;1.42;;;17.90;61.00;;;;;;4992643;28;20026;-72
2022/10/06 10:29:21;;;;;;;4.82;1.27;;;17.90;59.30;;;;;;4992505;28;20149;-72
2022/10/06 10:32:10;;;;;;;5.32;0.85;;;17.90;59.20;;;;;;4990201;28;20043;-72
2022/10/06 10:34:57;;;;;;;4.03;1.00;;;18.10;59.40;;;;;;4992693;28;20475;-72
2022/10/06 10:37:43;;;;;;;3.33;0.82;;;17.90;57.40;;;;;;4992732;28;20042;-73
2022/10/06 10:40:24;;;;;;;2.75;0.60;;;17.90;56.30;;;;;;4992565;28;20400;-72
2022/10/06 10:43:16;;;;;;;4.55;0.80;;;18.10;54.10;;;;;;4992424;28;20049;-72
2022/10/06 10:45:58;;;;;;;3.20;0.65;;;18.00;54.10;;;;;;4996226;28;20049;-75
2022/10/06 10:48:43;;;;;;;2.92;0.70;;;18.10;53.10;;;;;;4995962;28;20081;-72
2022/10/06 10:51:15;;;;;;;4.38;0.70;;;17.70;52.60;;;;;;4995332;28;20041;-73
2022/10/06 10:53:51;;;;;;;2.70;0.77;;;17.70;50.80;;;;;;4990171;28;20380;-73
2022/10/06 10:56:22;;;;;;;3.35;0.73;;;17.70;49.90;;;;;;4991184;28;20039;-72
2022/10/06 10:58:59;;;;;;;3.78;0.82;;;17.70;49.80;;;;;;4995299;28;20050;-72
2022/10/06 11:01:39;;;;;;;5.65;0.65;;;17.90;49.10;;;;;;4994400;28;20041;-72
2022/10/06 11:04:10;;;;;;;3.38;1.05;;;17.80;48.00;;;;;;4995268;28;20042;-72
2022/10/06 11:07:01;;;;;;;6.00;0.90;;;17.80;52.40;;;;;;4994751;28;20039;-71
2022/10/06 11:09:44;;;;;;;3.63;0.90;;;18.10;53.60;;;;;;4994763;28;20038;-72
2022/10/06 11:12:18;;;;;;;2.67;0.82;;;18.10;52.90;;;;;;4994271;28;20041;-73
2022/10/06 11:14:58;;;;;;;8.52;0.90;;;18.00;53.70;;;;;;4994189;28;20042;-78
2022/10/06 11:17:38;;;;;;;3.42;0.93;;;17.90;51.40;;;;;;4995767;28;20041;-71
2022/10/06 11:20:20;;;;;;;5.57;0.80;;;18.10;52.90;;;;;;4988652;28;20046;-72
2022/10/06 11:23:14;;;;;;;3.70;0.75;;;18.30;48.70;;;;;;4993512;28;20374;-73
2022/10/06 11:26:01;;;;;;;3.25;1.02;;;18.10;49.30;;;;;;4995432;28;20042;-72
2022/10/06 11:28:40;;;;;;;1.73;0.43;;;18.00;47.30;;;;;;4995347;28;20041;-73
2022/10/06 11:31:27;;;;;;;4.28;0.75;;;18.20;46.60;;;;;;4993873;28;20042;-74
2022/10/06 11:33:58;;;;;;;3.13;0.73;;;18.20;44.10;;;;;;4994869;28;20399;-74
2022/10/06 11:36:37;;;;;;;2.90;0.60;;;18.00;43.40;;;;;;4995824;28;20027;-73
2022/10/06 11:39:20;;;;;;;3.35;0.80;;;18.10;44.30;;;;;;4995002;28;20050;-74
2022/10/06 11:42:09;;;;;;;3.50;0.63;;;18.10;45.10;;;;;;4993547;28;20047;-81
2022/10/06 11:44:38;;;;;;;2.00;0.50;;;18.10;43.00;;;;;;4994943;28;20042;-72
2022/10/06 11:47:13;;;;;;;3.70;1.00;;;18.00;43.50;;;;;;4994473;28;20045;-73
2022/10/06 11:49:51;;;;;;;2.90;0.40;;;18.10;45.00;;;;;;4995310;28;20053;-72
2022/10/06 11:52:17;;;;;;;2.10;0.52;;;18.20;46.70;;;;;;4993597;28;20391;-72
2022/10/06 11:54:46;;;;;;;4.45;1.02;;;18.10;47.60;;;;;;4993876;28;20027;-72
2022/10/06 11:57:21;;;;;;;3.40;0.90;;;18.10;47.40;;;;;;4995221;28;20037;-72
2022/10/06 12:00:03;;;;;;;1.88;0.55;;;18.30;47.00;;;;;;4994273;28;20149;-71
2022/10/06 12:02:38;;;;;;;2.92;0.73;;;18.40;46.60;;;;;;4995800;28;20061;-73
2022/10/06 12:05:13;;;;;;;4.68;1.17;;;18.50;48.20;;;;;;4994453;28;20037;-72
2022/10/06 12:07:54;;;;;;;2.83;1.15;;;18.70;49.20;;;;;;4994767;28;20026;-73
2022/10/06 12:10:26;;;;;;;4.18;0.57;;;18.50;48.80;;;;;;4994896;28;20030;-72
2022/10/06 12:13:14;;;;;;;1.60;0.57;;;18.40;50.00;;;;;;4992451;28;20182;-73
2022/10/06 12:16:02;;;;;;;2.50;0.50;;;18.40;50.10;;;;;;4994888;28;20039;-71
2022/10/06 12:18:40;;;;;;;2.50;0.60;;;18.30;50.10;;;;;;4994761;28;20041;-72
2022/10/06 12:21:45;;;;;;;5.32;0.55;;;18.00;50.60;;;;;;4992482;28;20146;-74
2022/10/06 12:24:36;;;;;;;5.45;0.77;;;18.10;52.50;;;;;;4994440;28;20034;-73
2022/10/06 12:27:43;;;;;;;6.60;1.42;;;18.50;52.70;;;;;;4993785;28;20026;-72
2022/10/06 12:30:51;;;;;;;7.57;0.98;;;18.90;53.90;;;;;;4898440;29;20036;-74
2022/10/06 12:33:19;;;;;;;4.82;1.10;;;18.80;54.20;;;;;;4879473;29;20044;-73
2022/10/06 12:35:46;;;;;;;2.15;0.70;;;18.80;53.60;;;;;;4965095;28;20061;-73
2022/10/06 12:38:34;;;;;;;4.68;0.80;;;18.70;53.50;;;;;;4994113;28;20039;-73
2022/10/06 12:41:01;;;;;;;5.85;0.65;;;18.90;55.80;;;;;;4992348;28;20044;-74
2022/10/06 12:43:27;;;;;;;5.03;0.75;;;19.10;53.70;;;;;;4993805;28;20037;-73
2022/10/06 12:46:33;;;;;;;6.72;0.88;;;18.70;54.10;;;;;;4993505;28;20486;-73
2022/10/06 12:49:08;;;;;;;5.70;1.27;;;18.70;54.50;;;;;;4983579;28;20042;-73
2022/10/06 12:51:37;;;;;;;3.42;1.45;;;18.70;55.20;;;;;;4973509;28;20038;-74
2022/10/06 12:54:14;;;;;;;3.22;0.73;;;18.80;55.40;;;;;;4991300;28;20053;-73
2022/10/06 12:56:42;;;;;;;6.57;1.58;;;18.90;56.40;;;;;;4993123;28;20030;-72
2022/10/06 12:59:26;;;;;;;8.48;1.15;;;19.10;55.70;;;;;;4990795;28;20045;-73
2022/10/06 13:01:58;;;;;;;7.53;1.05;;;18.90;53.30;;;;;;4986310;28;20078;-72
2022/10/06 13:04:52;;;;;;;11.38;1.20;;;18.90;54.50;;;;;;4993198;28;20030;-72
2022/10/06 13:07:24;;;;;;;5.38;1.17;;;18.50;55.40;;;;;;4993442;28;20038;-73
2022/10/06 13:10:15;;;;;;;7.10;0.70;;;18.50;55.70;;;;;;4992409;28;20055;-74
2022/10/06 13:12:51;;;;;;;4.32;0.95;;;18.80;56.10;;;;;;4986939;28;20122;-76
2022/10/06 13:15:30;;;;;;;8.57;1.13;;;18.80;54.40;;;;;;4993260;28;20045;-73
2022/10/06 13:18:09;;;;;;;5.63;1.00;;;18.80;54.30;;;;;;4992867;28;20044;-74
2022/10/06 13:20:49;;;;;;;3.85;0.80;;;18.90;54.50;;;;;;4993179;28;20054;-73
2022/10/06 13:23:28;;;;;;;5.27;1.30;;;18.90;54.00;;;;;;4988677;28;20030;-75
2022/10/06 13:25:59;;;;;;;3.28;0.90;;;19.00;53.40;;;;;;4987660;28;20038;-76
2022/10/06 13:28:34;;;;;;;4.45;0.95;;;18.90;54.00;;;;;;4985369;28;20030;-73